sensor_id;sensor_type;location;lat;lon;timestamp;temperature;humidity
27667;DHT22;15074;50.940;5.282;2024-01-30T00:01:56;8.50;99.90
27667;DHT22;15074;50.940;5.282;2024-01-30T00:04:22;8.50;99.90
27667;DHT22;15074;50.940;5.282;2024-01-30T00:06:47;8.50;99.90
27667;DHT22;15074;50.940;5.282;2024-01-30T00:09:13;8.50;99.90
27667;DHT22;15074;50.940;5.282;2024-01-30T00:11:39;8.50;99.90
27667;DHT22;15074;50.940;5.282;2024-01-30T00:14:05;8.50;99.90
27667;DHT22;15074;50.940;5.282;2024-01-30T00:16:31;8.50;99.90
27667;DHT22;15074;50.940;5.282;2024-01-30T00:18:57;8.50;99.90
27667;DHT22;15074;50.940;5.282;2024-01-30T00:21:23;8.40;99.90
27667;DHT22;15074;50.940;5.282;2024-01-30T00:23:49;8.40;99.90
27667;DHT22;15074;50.940;5.282;2024-01-30T00:26:15;8.40;99.90
27667;DHT22;15074;50.940;5.282;2024-01-30T00:28:41;8.30;99.90
27667;DHT22;15074;50.940;5.282;2024-01-30T00:31:07;8.30;99.90
27667;DHT22;15074;50.940;5.282;2024-01-30T00:33:33;8.20;99.90
27667;DHT22;15074;50.940;5.282;2024-01-30T00:35:59;8.30;99.90
27667;DHT22;15074;50.940;5.282;2024-01-30T00:38:24;8.30;99.90
27667;DHT22;15074;50.940;5.282;2024-01-30T00:40:50;8.30;99.90
27667;DHT22;15074;50.940;5.282;2024-01-30T00:43:16;8.30;99.90
27667;DHT22;15074;50.940;5.282;2024-01-30T00:45:43;8.30;99.90
27667;DHT22;15074;50.940;5.282;2024-01-30T00:48:09;8.30;99.90
27667;DHT22;15074;50.940;5.282;2024-01-30T00:50:35;8.30;99.90
27667;DHT22;15074;50.940;5.282;2024-01-30T00:53:00;8.30;99.90
27667;DHT22;15074;50.940;5.282;2024-01-30T00:55:26;8.30;99.90
27667;DHT22;15074;50.940;5.282;2024-01-30T00:57:52;8.30;99.90
27667;DHT22;15074;50.940;5.282;2024-01-30T01:00:18;8.30;99.90
27667;DHT22;15074;50.940;5.282;2024-01-30T01:02:44;8.20;99.90
27667;DHT22;15074;50.940;5.282;2024-01-30T01:05:10;8.20;99.90
27667;DHT22;15074;50.940;5.282;2024-01-30T01:07:36;8.20;99.90
27667;DHT22;15074;50.940;5.282;2024-01-30T01:10:02;8.20;99.90
27667;DHT22;15074;50.940;5.282;2024-01-30T01:12:28;8.20;99.90
27667;DHT22;15074;50.940;5.282;2024-01-30T01:14:53;8.10;99.90
27667;DHT22;15074;50.940;5.282;2024-01-30T01:17:19;8.10;99.90
27667;DHT22;15074;50.940;5.282;2024-01-30T01:19:45;8.10;99.90
27667;DHT22;15074;50.940;5.282;2024-01-30T01:22:11;8.20;99.90
27667;DHT22;15074;50.940;5.282;2024-01-30T01:24:36;8.30;99.90
27667;DHT22;15074;50.940;5.282;2024-01-30T01:27:03;8.30;99.90
27667;DHT22;15074;50.940;5.282;2024-01-30T01:29:28;8.30;99.90
27667;DHT22;15074;50.940;5.282;2024-01-30T01:31:58;8.30;99.90
27667;DHT22;15074;50.940;5.282;2024-01-30T01:34:24;8.30;99.90
27667;DHT22;15074;50.940;5.282;2024-01-30T01:36:50;8.30;99.90
27667;DHT22;15074;50.940;5.282;2024-01-30T01:39:17;8.30;99.90
27667;DHT22;15074;50.940;5.282;2024-01-30T01:41:43;8.30;99.90
27667;DHT22;15074;50.940;5.282;2024-01-30T01:44:09;8.40;99.90
27667;DHT22;15074;50.940;5.282;2024-01-30T01:46:35;8.40;99.90
27667;DHT22;15074;50.940;5.282;2024-01-30T01:49:05;8.40;99.90
27667;DHT22;15074;50.940;5.282;2024-01-30T01:51:33;8.50;99.90
27667;DHT22;15074;50.940;5.282;2024-01-30T01:54:03;8.50;99.90
27667;DHT22;15074;50.940;5.282;2024-01-30T01:56:29;8.50;99.90
27667;DHT22;15074;50.940;5.282;2024-01-30T01:59:05;8.50;99.90
27667;DHT22;15074;50.940;5.282;2024-01-30T02:01:33;8.50;99.90
27667;DHT22;15074;50.940;5.282;2024-01-30T02:03:59;8.30;99.90
27667;DHT22;15074;50.940;5.282;2024-01-30T02:06:26;8.20;99.90
27667;DHT22;15074;50.940;5.282;2024-01-30T02:08:52;8.30;99.90
27667;DHT22;15074;50.940;5.282;2024-01-30T02:11:19;8.30;99.90
27667;DHT22;15074;50.940;5.282;2024-01-30T02:13:45;8.30;99.90
27667;DHT22;15074;50.940;5.282;2024-01-30T02:16:11;8.30;99.90
27667;DHT22;15074;50.940;5.282;2024-01-30T02:18:36;8.30;99.90
27667;DHT22;15074;50.940;5.282;2024-01-30T02:21:07;8.30;99.90
27667;DHT22;15074;50.940;5.282;2024-01-30T02:23:34;8.50;99.90
27667;DHT22;15074;50.940;5.282;2024-01-30T02:26:00;8.50;99.90
27667;DHT22;15074;50.940;5.282;2024-01-30T02:28:25;8.60;99.90
27667;DHT22;15074;50.940;5.282;2024-01-30T02:30:51;8.70;99.90
27667;DHT22;15074;50.940;5.282;2024-01-30T02:33:17;8.60;99.90
27667;DHT22;15074;50.940;5.282;2024-01-30T02:35:43;8.60;99.90
27667;DHT22;15074;50.940;5.282;2024-01-30T02:38:08;8.60;99.90
27667;DHT22;15074;50.940;5.282;2024-01-30T02:40:34;8.50;99.90
27667;DHT22;15074;50.940;5.282;2024-01-30T02:43:01;8.50;99.90
27667;DHT22;15074;50.940;5.282;2024-01-30T02:45:27;8.50;99.90
27667;DHT22;15074;50.940;5.282;2024-01-30T02:47:52;8.30;99.90
27667;DHT22;15074;50.940;5.282;2024-01-30T02:50:18;8.30;99.90
27667;DHT22;15074;50.940;5.282;2024-01-30T02:52:44;8.30;99.90
27667;DHT22;15074;50.940;5.282;2024-01-30T02:55:10;8.30;99.90
27667;DHT22;15074;50.940;5.282;2024-01-30T02:57:36;8.30;99.90
27667;DHT22;15074;50.940;5.282;2024-01-30T03:00:02;8.30;99.90
27667;DHT22;15074;50.940;5.282;2024-01-30T03:02:29;8.40;99.90
27667;DHT22;15074;50.940;5.282;2024-01-30T03:04:55;8.50;99.90
27667;DHT22;15074;50.940;5.282;2024-01-30T03:07:20;8.60;99.90
27667;DHT22;15074;50.940;5.282;2024-01-30T03:09:46;8.60;99.90
27667;DHT22;15074;50.940;5.282;2024-01-30T03:12:12;8.60;99.90
27667;DHT22;15074;50.940;5.282;2024-01-30T03:14:38;8.60;99.90
27667;DHT22;15074;50.940;5.282;2024-01-30T03:17:03;8.70;99.90
27667;DHT22;15074;50.940;5.282;2024-01-30T03:19:29;8.70;99.90
27667;DHT22;15074;50.940;5.282;2024-01-30T03:21:54;8.70;99.90
27667;DHT22;15074;50.940;5.282;2024-01-30T03:24:20;8.70;99.90
27667;DHT22;15074;50.940;5.282;2024-01-30T03:26:46;8.70;99.90
27667;DHT22;15074;50.940;5.282;2024-01-30T03:29:12;8.70;99.90
27667;DHT22;15074;50.940;5.282;2024-01-30T03:31:38;8.60;99.90
27667;DHT22;15074;50.940;5.282;2024-01-30T03:34:04;8.60;99.90
27667;DHT22;15074;50.940;5.282;2024-01-30T03:36:29;8.60;99.90
27667;DHT22;15074;50.940;5.282;2024-01-30T03:38:58;8.50;99.90
27667;DHT22;15074;50.940;5.282;2024-01-30T03:41:24;8.50;99.90
27667;DHT22;15074;50.940;5.282;2024-01-30T03:43:50;8.40;99.90
27667;DHT22;15074;50.940;5.282;2024-01-30T03:46:15;8.40;99.90
27667;DHT22;15074;50.940;5.282;2024-01-30T03:48:41;8.50;99.90
27667;DHT22;15074;50.940;5.282;2024-01-30T03:51:07;8.60;99.90
27667;DHT22;15074;50.940;5.282;2024-01-30T03:53:33;8.70;99.90
27667;DHT22;15074;50.940;5.282;2024-01-30T03:55:59;8.80;99.90
27667;DHT22;15074;50.940;5.282;2024-01-30T03:58:24;8.80;99.90
27667;DHT22;15074;50.940;5.282;2024-01-30T04:00:50;8.80;99.90
27667;DHT22;15074;50.940;5.282;2024-01-30T04:03:15;8.80;99.90
27667;DHT22;15074;50.940;5.282;2024-01-30T04:05:42;8.80;99.90
27667;DHT22;15074;50.940;5.282;2024-01-30T04:08:07;8.80;99.90
27667;DHT22;15074;50.940;5.282;2024-01-30T04:10:34;8.70;99.90
27667;DHT22;15074;50.940;5.282;2024-01-30T04:13:00;8.70;99.90
27667;DHT22;15074;50.940;5.282;2024-01-30T04:15:26;8.70;99.90
27667;DHT22;15074;50.940;5.282;2024-01-30T04:17:52;8.70;99.90
27667;DHT22;15074;50.940;5.282;2024-01-30T04:20:17;8.60;99.90
27667;DHT22;15074;50.940;5.282;2024-01-30T04:22:44;8.70;99.90
27667;DHT22;15074;50.940;5.282;2024-01-30T04:25:10;8.70;99.90
27667;DHT22;15074;50.940;5.282;2024-01-30T04:27:36;8.60;99.90
27667;DHT22;15074;50.940;5.282;2024-01-30T04:30:01;8.60;99.90
27667;DHT22;15074;50.940;5.282;2024-01-30T04:32:27;8.50;99.90
27667;DHT22;15074;50.940;5.282;2024-01-30T04:34:53;8.60;99.90
27667;DHT22;15074;50.940;5.282;2024-01-30T04:37:18;8.70;99.90
27667;DHT22;15074;50.940;5.282;2024-01-30T04:39:44;8.70;99.90
27667;DHT22;15074;50.940;5.282;2024-01-30T04:42:09;8.70;99.90
27667;DHT22;15074;50.940;5.282;2024-01-30T04:44:40;8.70;99.90
27667;DHT22;15074;50.940;5.282;2024-01-30T04:47:06;8.80;99.90
27667;DHT22;15074;50.940;5.282;2024-01-30T04:49:34;8.70;99.90
27667;DHT22;15074;50.940;5.282;2024-01-30T04:52:00;8.80;99.90
27667;DHT22;15074;50.940;5.282;2024-01-30T04:54:25;8.80;99.90
27667;DHT22;15074;50.940;5.282;2024-01-30T04:56:51;8.80;99.90
27667;DHT22;15074;50.940;5.282;2024-01-30T04:59:16;8.80;99.90
27667;DHT22;15074;50.940;5.282;2024-01-30T05:01:42;8.80;99.90
27667;DHT22;15074;50.940;5.282;2024-01-30T05:04:08;8.90;99.90
27667;DHT22;15074;50.940;5.282;2024-01-30T05:06:34;8.90;99.90
27667;DHT22;15074;50.940;5.282;2024-01-30T05:09:00;9.00;99.90
27667;DHT22;15074;50.940;5.282;2024-01-30T05:11:25;9.00;99.90
27667;DHT22;15074;50.940;5.282;2024-01-30T05:13:51;9.00;99.90
27667;DHT22;15074;50.940;5.282;2024-01-30T05:16:16;9.00;99.90
27667;DHT22;15074;50.940;5.282;2024-01-30T05:18:43;9.00;99.90
27667;DHT22;15074;50.940;5.282;2024-01-30T05:21:09;9.10;99.90
27667;DHT22;15074;50.940;5.282;2024-01-30T05:23:35;9.10;99.90
27667;DHT22;15074;50.940;5.282;2024-01-30T05:26:01;9.10;99.90
27667;DHT22;15074;50.940;5.282;2024-01-30T05:28:29;9.00;99.90
27667;DHT22;15074;50.940;5.282;2024-01-30T05:30:56;9.00;99.90
27667;DHT22;15074;50.940;5.282;2024-01-30T05:33:21;9.00;99.90
27667;DHT22;15074;50.940;5.282;2024-01-30T05:35:47;9.00;99.90
27667;DHT22;15074;50.940;5.282;2024-01-30T05:38:14;9.00;99.90
27667;DHT22;15074;50.940;5.282;2024-01-30T05:40:40;9.00;99.90
27667;DHT22;15074;50.940;5.282;2024-01-30T05:43:06;9.00;99.90
27667;DHT22;15074;50.940;5.282;2024-01-30T05:45:33;9.00;99.90
27667;DHT22;15074;50.940;5.282;2024-01-30T05:48:00;9.00;99.90
27667;DHT22;15074;50.940;5.282;2024-01-30T05:50:26;9.00;99.90
27667;DHT22;15074;50.940;5.282;2024-01-30T05:52:52;9.00;99.90
27667;DHT22;15074;50.940;5.282;2024-01-30T05:55:18;9.00;99.90
27667;DHT22;15074;50.940;5.282;2024-01-30T05:57:44;9.00;99.90
27667;DHT22;15074;50.940;5.282;2024-01-30T06:00:09;9.00;99.90
27667;DHT22;15074;50.940;5.282;2024-01-30T06:02:36;9.00;99.90
27667;DHT22;15074;50.940;5.282;2024-01-30T06:05:01;9.00;99.90
27667;DHT22;15074;50.940;5.282;2024-01-30T06:07:27;9.10;99.90
27667;DHT22;15074;50.940;5.282;2024-01-30T06:09:53;9.10;99.90
27667;DHT22;15074;50.940;5.282;2024-01-30T06:12:18;9.00;99.90
27667;DHT22;15074;50.940;5.282;2024-01-30T06:14:44;9.20;99.90
27667;DHT22;15074;50.940;5.282;2024-01-30T06:17:10;9.10;99.90
27667;DHT22;15074;50.940;5.282;2024-01-30T06:19:37;9.20;99.90
27667;DHT22;15074;50.940;5.282;2024-01-30T06:22:04;9.20;99.90
27667;DHT22;15074;50.940;5.282;2024-01-30T06:24:30;9.20;99.90
27667;DHT22;15074;50.940;5.282;2024-01-30T06:26:56;9.20;99.90
27667;DHT22;15074;50.940;5.282;2024-01-30T06:29:23;9.10;99.90
27667;DHT22;15074;50.940;5.282;2024-01-30T06:31:50;9.00;99.90
27667;DHT22;15074;50.940;5.282;2024-01-30T06:34:16;9.00;99.90
27667;DHT22;15074;50.940;5.282;2024-01-30T06:36:44;9.00;99.90
27667;DHT22;15074;50.940;5.282;2024-01-30T06:39:09;9.00;99.90
27667;DHT22;15074;50.940;5.282;2024-01-30T06:41:35;9.00;99.90
27667;DHT22;15074;50.940;5.282;2024-01-30T06:44:04;9.10;99.90
27667;DHT22;15074;50.940;5.282;2024-01-30T06:46:31;9.20;99.90
27667;DHT22;15074;50.940;5.282;2024-01-30T06:48:58;9.20;99.90
27667;DHT22;15074;50.940;5.282;2024-01-30T06:51:23;9.20;99.90
27667;DHT22;15074;50.940;5.282;2024-01-30T06:53:49;9.30;99.90
27667;DHT22;15074;50.940;5.282;2024-01-30T06:56:16;9.40;99.90
27667;DHT22;15074;50.940;5.282;2024-01-30T06:58:49;9.50;99.90
27667;DHT22;15074;50.940;5.282;2024-01-30T07:01:15;9.50;99.90
27667;DHT22;15074;50.940;5.282;2024-01-30T07:03:41;9.50;99.90
27667;DHT22;15074;50.940;5.282;2024-01-30T07:06:07;9.50;99.90
27667;DHT22;15074;50.940;5.282;2024-01-30T07:08:33;9.60;99.90
27667;DHT22;15074;50.940;5.282;2024-01-30T07:10:59;9.60;99.90
27667;DHT22;15074;50.940;5.282;2024-01-30T07:13:24;9.70;99.90
27667;DHT22;15074;50.940;5.282;2024-01-30T07:15:50;9.60;99.90
27667;DHT22;15074;50.940;5.282;2024-01-30T07:18:16;9.60;99.90
27667;DHT22;15074;50.940;5.282;2024-01-30T07:20:41;9.60;99.90
27667;DHT22;15074;50.940;5.282;2024-01-30T07:23:12;9.50;99.90
27667;DHT22;15074;50.940;5.282;2024-01-30T07:25:40;9.60;99.90
27667;DHT22;15074;50.940;5.282;2024-01-30T07:28:07;9.60;99.90
27667;DHT22;15074;50.940;5.282;2024-01-30T07:30:34;9.60;99.90
27667;DHT22;15074;50.940;5.282;2024-01-30T07:33:00;9.70;99.90
27667;DHT22;15074;50.940;5.282;2024-01-30T07:35:26;9.80;99.90
27667;DHT22;15074;50.940;5.282;2024-01-30T07:37:51;9.70;99.90
27667;DHT22;15074;50.940;5.282;2024-01-30T07:40:17;9.80;99.90
27667;DHT22;15074;50.940;5.282;2024-01-30T07:42:43;10.00;99.90
27667;DHT22;15074;50.940;5.282;2024-01-30T07:45:09;10.10;99.90
27667;DHT22;15074;50.940;5.282;2024-01-30T07:47:34;10.20;99.90
27667;DHT22;15074;50.940;5.282;2024-01-30T07:50:00;10.20;99.90
27667;DHT22;15074;50.940;5.282;2024-01-30T07:52:26;10.10;99.90
27667;DHT22;15074;50.940;5.282;2024-01-30T07:54:52;10.10;99.90
27667;DHT22;15074;50.940;5.282;2024-01-30T07:57:18;10.20;99.90
27667;DHT22;15074;50.940;5.282;2024-01-30T07:59:44;10.10;99.90
27667;DHT22;15074;50.940;5.282;2024-01-30T08:02:11;10.20;99.90
27667;DHT22;15074;50.940;5.282;2024-01-30T08:04:37;10.10;99.90
27667;DHT22;15074;50.940;5.282;2024-01-30T08:07:03;10.20;99.90
27667;DHT22;15074;50.940;5.282;2024-01-30T08:09:28;10.30;99.90
27667;DHT22;15074;50.940;5.282;2024-01-30T08:11:54;10.20;99.90
27667;DHT22;15074;50.940;5.282;2024-01-30T08:14:20;10.30;99.90
27667;DHT22;15074;50.940;5.282;2024-01-30T08:16:45;10.30;99.90
27667;DHT22;15074;50.940;5.282;2024-01-30T08:19:11;10.30;99.90
27667;DHT22;15074;50.940;5.282;2024-01-30T08:21:37;10.40;99.90
27667;DHT22;15074;50.940;5.282;2024-01-30T08:24:04;10.50;99.90
27667;DHT22;15074;50.940;5.282;2024-01-30T08:26:31;10.60;99.90
27667;DHT22;15074;50.940;5.282;2024-01-30T08:28:56;10.50;99.90
27667;DHT22;15074;50.940;5.282;2024-01-30T08:31:22;10.40;99.90
27667;DHT22;15074;50.940;5.282;2024-01-30T08:33:48;10.40;99.90
27667;DHT22;15074;50.940;5.282;2024-01-30T08:36:15;10.50;99.90
27667;DHT22;15074;50.940;5.282;2024-01-30T08:38:40;10.50;99.90
27667;DHT22;15074;50.940;5.282;2024-01-30T08:41:07;10.60;99.90
27667;DHT22;15074;50.940;5.282;2024-01-30T08:43:33;10.70;99.90
27667;DHT22;15074;50.940;5.282;2024-01-30T08:45:59;10.70;99.90
27667;DHT22;15074;50.940;5.282;2024-01-30T08:48:26;10.70;99.90
27667;DHT22;15074;50.940;5.282;2024-01-30T08:50:51;10.90;99.90
27667;DHT22;15074;50.940;5.282;2024-01-30T08:53:17;10.90;99.90
27667;DHT22;15074;50.940;5.282;2024-01-30T08:55:43;10.90;99.90
27667;DHT22;15074;50.940;5.282;2024-01-30T08:58:08;10.90;99.90
27667;DHT22;15074;50.940;5.282;2024-01-30T09:00:34;11.00;99.90
27667;DHT22;15074;50.940;5.282;2024-01-30T09:03:00;10.90;99.90
27667;DHT22;15074;50.940;5.282;2024-01-30T09:05:25;10.80;99.90
27667;DHT22;15074;50.940;5.282;2024-01-30T09:07:51;10.90;99.90
27667;DHT22;15074;50.940;5.282;2024-01-30T09:10:17;10.90;99.90
27667;DHT22;15074;50.940;5.282;2024-01-30T09:12:42;11.00;99.90
27667;DHT22;15074;50.940;5.282;2024-01-30T09:15:08;11.00;99.90
27667;DHT22;15074;50.940;5.282;2024-01-30T09:17:34;11.00;99.90
27667;DHT22;15074;50.940;5.282;2024-01-30T09:20:00;11.00;99.90
27667;DHT22;15074;50.940;5.282;2024-01-30T09:22:26;11.00;99.90
27667;DHT22;15074;50.940;5.282;2024-01-30T09:24:51;11.10;99.90
27667;DHT22;15074;50.940;5.282;2024-01-30T09:27:17;11.20;99.90
27667;DHT22;15074;50.940;5.282;2024-01-30T09:29:42;11.20;99.90
27667;DHT22;15074;50.940;5.282;2024-01-30T09:32:08;11.20;99.90
27667;DHT22;15074;50.940;5.282;2024-01-30T09:34:34;11.10;99.90
27667;DHT22;15074;50.940;5.282;2024-01-30T09:37:00;11.10;99.90
27667;DHT22;15074;50.940;5.282;2024-01-30T09:39:26;11.10;99.90
27667;DHT22;15074;50.940;5.282;2024-01-30T09:44:45;11.30;99.90
27667;DHT22;15074;50.940;5.282;2024-01-30T09:47:12;11.40;99.90
27667;DHT22;15074;50.940;5.282;2024-01-30T09:49:39;11.50;99.90
27667;DHT22;15074;50.940;5.282;2024-01-30T09:52:07;11.50;99.90
27667;DHT22;15074;50.940;5.282;2024-01-30T09:54:34;11.60;99.90
27667;DHT22;15074;50.940;5.282;2024-01-30T09:57:00;11.70;99.90
27667;DHT22;15074;50.940;5.282;2024-01-30T09:59:26;11.70;99.90
27667;DHT22;15074;50.940;5.282;2024-01-30T10:01:52;11.70;99.90
27667;DHT22;15074;50.940;5.282;2024-01-30T10:04:17;11.80;99.90
27667;DHT22;15074;50.940;5.282;2024-01-30T10:06:43;11.80;99.90
27667;DHT22;15074;50.940;5.282;2024-01-30T10:09:09;11.90;99.90
27667;DHT22;15074;50.940;5.282;2024-01-30T10:11:36;11.90;99.90
27667;DHT22;15074;50.940;5.282;2024-01-30T10:14:02;12.00;99.90
27667;DHT22;15074;50.940;5.282;2024-01-30T10:16:28;12.00;99.90
27667;DHT22;15074;50.940;5.282;2024-01-30T10:18:53;12.00;99.90
27667;DHT22;15074;50.940;5.282;2024-01-30T10:21:19;12.10;99.90
27667;DHT22;15074;50.940;5.282;2024-01-30T10:23:45;12.20;99.90
27667;DHT22;15074;50.940;5.282;2024-01-30T10:26:10;12.20;99.90
27667;DHT22;15074;50.940;5.282;2024-01-30T10:28:36;12.10;99.90
27667;DHT22;15074;50.940;5.282;2024-01-30T10:31:02;12.10;99.90
27667;DHT22;15074;50.940;5.282;2024-01-30T10:33:31;12.10;99.90
27667;DHT22;15074;50.940;5.282;2024-01-30T10:36:03;12.00;99.90
27667;DHT22;15074;50.940;5.282;2024-01-30T10:38:30;12.10;99.90
27667;DHT22;15074;50.940;5.282;2024-01-30T10:41:00;12.10;99.90
27667;DHT22;15074;50.940;5.282;2024-01-30T10:43:40;12.00;99.90
27667;DHT22;15074;50.940;5.282;2024-01-30T10:46:19;12.00;99.90
27667;DHT22;15074;50.940;5.282;2024-01-30T10:48:51;12.10;99.90
27667;DHT22;15074;50.940;5.282;2024-01-30T10:51:22;12.00;99.90
27667;DHT22;15074;50.940;5.282;2024-01-30T10:53:49;12.10;99.90
27667;DHT22;15074;50.940;5.282;2024-01-30T10:56:16;12.10;99.90
27667;DHT22;15074;50.940;5.282;2024-01-30T10:58:42;12.20;99.90
27667;DHT22;15074;50.940;5.282;2024-01-30T11:01:08;12.20;99.90
27667;DHT22;15074;50.940;5.282;2024-01-30T11:03:34;12.10;99.90
27667;DHT22;15074;50.940;5.282;2024-01-30T11:06:02;12.00;99.90
27667;DHT22;15074;50.940;5.282;2024-01-30T11:08:28;12.00;99.90
27667;DHT22;15074;50.940;5.282;2024-01-30T11:10:58;12.00;99.90
27667;DHT22;15074;50.940;5.282;2024-01-30T11:13:31;12.00;99.90
27667;DHT22;15074;50.940;5.282;2024-01-30T11:16:06;11.90;99.90
27667;DHT22;15074;50.940;5.282;2024-01-30T11:18:33;11.90;99.90
27667;DHT22;15074;50.940;5.282;2024-01-30T11:21:01;11.80;99.90
27667;DHT22;15074;50.940;5.282;2024-01-30T11:23:30;11.90;99.90
27667;DHT22;15074;50.940;5.282;2024-01-30T11:25:56;11.90;99.90
27667;DHT22;15074;50.940;5.282;2024-01-30T11:28:23;11.80;99.90
27667;DHT22;15074;50.940;5.282;2024-01-30T11:30:49;11.90;99.90
27667;DHT22;15074;50.940;5.282;2024-01-30T11:33:28;12.00;99.90
27667;DHT22;15074;50.940;5.282;2024-01-30T11:36:00;11.90;99.90
27667;DHT22;15074;50.940;5.282;2024-01-30T11:38:27;11.90;99.90
27667;DHT22;15074;50.940;5.282;2024-01-30T11:40:56;11.90;99.90
27667;DHT22;15074;50.940;5.282;2024-01-30T11:43:23;11.90;99.90
27667;DHT22;15074;50.940;5.282;2024-01-30T11:45:49;11.80;99.90
27667;DHT22;15074;50.940;5.282;2024-01-30T11:48:15;11.80;99.90
27667;DHT22;15074;50.940;5.282;2024-01-30T11:50:40;11.80;99.90
27667;DHT22;15074;50.940;5.282;2024-01-30T11:53:06;11.90;99.90
27667;DHT22;15074;50.940;5.282;2024-01-30T11:55:33;11.90;99.90
27667;DHT22;15074;50.940;5.282;2024-01-30T11:57:59;12.00;99.90
27667;DHT22;15074;50.940;5.282;2024-01-30T12:00:25;12.00;99.90
27667;DHT22;15074;50.940;5.282;2024-01-30T12:02:53;12.20;99.90
27667;DHT22;15074;50.940;5.282;2024-01-30T12:05:24;12.20;99.90
27667;DHT22;15074;50.940;5.282;2024-01-30T12:07:50;12.20;99.90
27667;DHT22;15074;50.940;5.282;2024-01-30T12:10:16;12.20;99.90
27667;DHT22;15074;50.940;5.282;2024-01-30T12:12:46;12.30;99.90
27667;DHT22;15074;50.940;5.282;2024-01-30T12:15:13;12.20;99.90
27667;DHT22;15074;50.940;5.282;2024-01-30T12:17:39;12.20;99.90
27667;DHT22;15074;50.940;5.282;2024-01-30T12:20:06;12.10;99.90
27667;DHT22;15074;50.940;5.282;2024-01-30T12:22:40;12.20;99.90
27667;DHT22;15074;50.940;5.282;2024-01-30T12:25:10;12.10;99.90
27667;DHT22;15074;50.940;5.282;2024-01-30T12:27:37;12.10;99.90
27667;DHT22;15074;50.940;5.282;2024-01-30T12:30:07;11.90;99.90
27667;DHT22;15074;50.940;5.282;2024-01-30T12:32:35;11.80;99.90
27667;DHT22;15074;50.940;5.282;2024-01-30T12:35:01;11.60;99.90
27667;DHT22;15074;50.940;5.282;2024-01-30T12:37:27;11.50;99.90
27667;DHT22;15074;50.940;5.282;2024-01-30T12:39:55;11.50;99.90
27667;DHT22;15074;50.940;5.282;2024-01-30T12:42:20;11.60;99.90
27667;DHT22;15074;50.940;5.282;2024-01-30T12:44:50;11.60;99.90
27667;DHT22;15074;50.940;5.282;2024-01-30T12:47:16;11.70;99.90
27667;DHT22;15074;50.940;5.282;2024-01-30T12:49:44;11.70;99.90
27667;DHT22;15074;50.940;5.282;2024-01-30T12:52:16;11.70;99.90
27667;DHT22;15074;50.940;5.282;2024-01-30T12:54:41;11.80;99.90
27667;DHT22;15074;50.940;5.282;2024-01-30T12:57:07;11.70;99.90
27667;DHT22;15074;50.940;5.282;2024-01-30T12:59:33;11.80;99.90
27667;DHT22;15074;50.940;5.282;2024-01-30T13:02:00;11.70;99.90
27667;DHT22;15074;50.940;5.282;2024-01-30T13:04:27;11.70;99.90
27667;DHT22;15074;50.940;5.282;2024-01-30T13:06:53;11.80;99.90
27667;DHT22;15074;50.940;5.282;2024-01-30T13:09:19;11.80;99.90
27667;DHT22;15074;50.940;5.282;2024-01-30T13:11:45;11.80;99.90
27667;DHT22;15074;50.940;5.282;2024-01-30T13:14:10;11.80;99.90
27667;DHT22;15074;50.940;5.282;2024-01-30T13:16:36;11.90;99.90
27667;DHT22;15074;50.940;5.282;2024-01-30T13:19:02;11.80;99.90
27667;DHT22;15074;50.940;5.282;2024-01-30T13:21:28;11.70;99.90
27667;DHT22;15074;50.940;5.282;2024-01-30T13:23:54;11.80;99.90
27667;DHT22;15074;50.940;5.282;2024-01-30T13:26:22;11.80;99.90
27667;DHT22;15074;50.940;5.282;2024-01-30T13:28:48;11.70;99.90
27667;DHT22;15074;50.940;5.282;2024-01-30T13:31:14;11.70;99.90
27667;DHT22;15074;50.940;5.282;2024-01-30T13:33:40;11.80;99.90
27667;DHT22;15074;50.940;5.282;2024-01-30T13:36:10;11.80;99.90
27667;DHT22;15074;50.940;5.282;2024-01-30T13:38:36;11.70;99.90
27667;DHT22;15074;50.940;5.282;2024-01-30T13:41:02;11.70;99.90
27667;DHT22;15074;50.940;5.282;2024-01-30T13:43:28;11.70;99.90
27667;DHT22;15074;50.940;5.282;2024-01-30T13:45:54;11.60;99.90
27667;DHT22;15074;50.940;5.282;2024-01-30T13:48:20;11.70;99.90
27667;DHT22;15074;50.940;5.282;2024-01-30T13:50:47;12.10;99.90
27667;DHT22;15074;50.940;5.282;2024-01-30T13:53:13;12.20;99.90
27667;DHT22;15074;50.940;5.282;2024-01-30T13:55:38;12.50;99.90
27667;DHT22;15074;50.940;5.282;2024-01-30T13:58:05;12.50;99.90
27667;DHT22;15074;50.940;5.282;2024-01-30T14:00:31;12.60;99.90
27667;DHT22;15074;50.940;5.282;2024-01-30T14:02:57;12.70;99.90
27667;DHT22;15074;50.940;5.282;2024-01-30T14:05:26;12.90;99.90
27667;DHT22;15074;50.940;5.282;2024-01-30T14:07:53;13.10;99.90
27667;DHT22;15074;50.940;5.282;2024-01-30T14:10:19;13.30;99.90
27667;DHT22;15074;50.940;5.282;2024-01-30T14:12:45;13.20;99.90
27667;DHT22;15074;50.940;5.282;2024-01-30T14:15:11;13.10;99.90
27667;DHT22;15074;50.940;5.282;2024-01-30T14:17:38;12.80;99.90
27667;DHT22;15074;50.940;5.282;2024-01-30T14:20:04;12.80;99.90
27667;DHT22;15074;50.940;5.282;2024-01-30T14:22:30;12.80;99.90
27667;DHT22;15074;50.940;5.282;2024-01-30T14:24:56;12.60;99.90
27667;DHT22;15074;50.940;5.282;2024-01-30T14:27:22;12.30;99.90
27667;DHT22;15074;50.940;5.282;2024-01-30T14:29:48;12.10;99.90
27667;DHT22;15074;50.940;5.282;2024-01-30T14:32:13;12.00;99.90
27667;DHT22;15074;50.940;5.282;2024-01-30T14:34:39;11.90;99.90
27667;DHT22;15074;50.940;5.282;2024-01-30T14:37:05;11.90;99.90
27667;DHT22;15074;50.940;5.282;2024-01-30T14:39:31;11.90;99.90
27667;DHT22;15074;50.940;5.282;2024-01-30T14:41:57;11.80;99.90
27667;DHT22;15074;50.940;5.282;2024-01-30T14:44:22;11.70;99.90
27667;DHT22;15074;50.940;5.282;2024-01-30T14:46:49;11.60;99.90
27667;DHT22;15074;50.940;5.282;2024-01-30T14:49:14;11.40;99.90
27667;DHT22;15074;50.940;5.282;2024-01-30T14:51:41;11.30;99.90
27667;DHT22;15074;50.940;5.282;2024-01-30T14:54:07;11.40;99.90
27667;DHT22;15074;50.940;5.282;2024-01-30T14:56:33;11.30;99.90
27667;DHT22;15074;50.940;5.282;2024-01-30T14:58:59;11.20;99.90
27667;DHT22;15074;50.940;5.282;2024-01-30T15:01:24;11.20;99.90
27667;DHT22;15074;50.940;5.282;2024-01-30T15:03:50;11.20;99.90
27667;DHT22;15074;50.940;5.282;2024-01-30T15:06:20;11.10;99.90
27667;DHT22;15074;50.940;5.282;2024-01-30T15:08:49;11.10;99.90
27667;DHT22;15074;50.940;5.282;2024-01-30T15:11:15;11.10;99.90
27667;DHT22;15074;50.940;5.282;2024-01-30T15:13:41;11.10;99.90
27667;DHT22;15074;50.940;5.282;2024-01-30T15:16:07;11.00;99.90
27667;DHT22;15074;50.940;5.282;2024-01-30T15:18:33;11.00;99.90
27667;DHT22;15074;50.940;5.282;2024-01-30T15:21:13;11.00;99.90
27667;DHT22;15074;50.940;5.282;2024-01-30T15:23:39;10.90;99.90
27667;DHT22;15074;50.940;5.282;2024-01-30T15:26:04;10.90;99.90
27667;DHT22;15074;50.940;5.282;2024-01-30T15:28:35;10.90;99.90
27667;DHT22;15074;50.940;5.282;2024-01-30T15:31:02;10.90;99.90
27667;DHT22;15074;50.940;5.282;2024-01-30T15:33:28;10.90;99.90
27667;DHT22;15074;50.940;5.282;2024-01-30T15:35:53;10.80;99.90